createdAt,value
2019-01-20T00:00:53.421Z,2.93
2019-01-20T00:03:34.653Z,2.92
2019-01-20T00:06:04.035Z,2.90
2019-01-20T00:08:33.325Z,2.87
2019-01-20T00:11:02.760Z,2.84
2019-01-20T00:13:32.175Z,2.81
2019-01-20T00:16:01.855Z,2.78
2019-01-20T00:18:31.135Z,2.72
2019-01-20T00:21:00.506Z,2.68
2019-01-20T00:23:29.805Z,2.66
2019-01-20T00:25:59.136Z,2.64
2019-01-20T00:28:28.420Z,2.60
2019-01-20T00:30:57.774Z,2.57
2019-01-20T00:33:27.091Z,2.55
2019-01-20T00:35:56.412Z,2.53
2019-01-20T00:38:25.719Z,2.52
2019-01-20T00:40:55.046Z,2.19
2019-01-20T00:43:24.323Z,2.49
2019-01-20T00:45:53.625Z,2.52
2019-01-20T00:48:22.946Z,2.58
2019-01-20T00:50:52.256Z,2.60
2019-01-20T00:53:21.628Z,2.66
2019-01-20T00:55:50.974Z,2.67
2019-01-20T00:58:20.340Z,2.68
2019-01-20T01:00:49.687Z,2.71
2019-01-20T01:03:19.191Z,2.74
2019-01-20T01:05:48.527Z,2.56
2019-01-20T01:08:17.843Z,2.74
2019-01-20T01:10:47.172Z,2.77
2019-01-20T01:13:35.512Z,2.79
2019-01-20T01:16:05.113Z,2.83
2019-01-20T01:18:34.413Z,2.81
2019-01-20T01:21:03.939Z,2.83
2019-01-20T01:23:33.239Z,2.87
2019-01-20T01:26:02.783Z,2.91
2019-01-20T01:28:32.078Z,2.93
2019-01-20T01:31:01.454Z,2.93
2019-01-20T01:33:49.827Z,2.65
2019-01-20T01:36:19.126Z,2.91
2019-01-20T01:39:08.593Z,2.94
2019-01-20T01:44:13.214Z,2.95
2019-01-20T01:46:42.514Z,2.44
2019-01-20T01:52:00.312Z,2.35
2019-01-20T01:54:29.597Z,2.97
2019-01-20T01:56:58.950Z,2.98
2019-01-20T01:59:28.253Z,2.99
2019-01-20T02:01:57.839Z,2.99
2019-01-20T02:04:27.170Z,3.03
2019-01-20T02:07:15.468Z,3.04
2019-01-20T02:09:45.150Z,3.06
2019-01-20T02:12:33.672Z,3.06
2019-01-20T02:15:02.970Z,3.07
2019-01-20T02:17:32.593Z,3.09
2019-01-20T02:20:01.894Z,3.09
2019-01-20T02:22:50.269Z,3.11
2019-01-20T02:25:19.933Z,3.12
2019-01-20T02:30:39.143Z,3.16
2019-01-20T02:33:08.761Z,3.17
2019-01-20T02:35:38.049Z,3.15
2019-01-20T02:38:07.675Z,3.16
2019-01-20T02:40:36.972Z,3.18
2019-01-20T02:43:06.284Z,3.19
2019-01-20T02:45:35.608Z,3.19
2019-01-20T02:48:05.404Z,3.19
2019-01-20T02:50:34.708Z,3.19
2019-01-20T02:53:04.096Z,3.20
2019-01-20T02:55:33.416Z,3.21
2019-01-20T02:58:02.901Z,3.22
2019-01-20T03:03:20.536Z,3.22
2019-01-20T03:05:50.001Z,3.22
2019-01-20T03:08:19.339Z,3.23
2019-01-20T03:10:48.731Z,3.23
2019-01-20T03:13:18.023Z,3.23
2019-01-20T03:15:47.360Z,3.22
2019-01-20T03:18:16.653Z,3.23
2019-01-20T03:20:46.092Z,3.22
2019-01-20T03:23:15.508Z,3.21
2019-01-20T03:26:03.681Z,3.16
2019-01-20T03:28:52.029Z,3.15
2019-01-20T03:31:21.408Z,3.12
2019-01-20T03:33:50.843Z,3.08
2019-01-20T03:36:39.096Z,3.08
2019-01-20T03:42:02.778Z,3.09
2019-01-20T03:44:32.080Z,3.09
2019-01-20T03:47:01.495Z,3.08
2019-01-20T03:49:50.145Z,3.08
2019-01-20T03:52:19.508Z,3.08
2019-01-20T03:54:48.900Z,3.08
2019-01-20T03:57:18.281Z,3.06
2019-01-20T03:59:48.027Z,3.03
2019-01-20T04:02:18.960Z,3.02
2019-01-20T04:05:07.191Z,2.98
2019-01-20T04:07:36.690Z,2.65
2019-01-20T04:10:08.500Z,2.91
2019-01-20T04:12:37.811Z,2.79
2019-01-20T04:18:16.082Z,2.74
2019-01-20T04:20:45.391Z,2.68
2019-01-20T04:23:33.653Z,2.59
2019-01-20T04:26:03.245Z,2.50
2019-01-20T04:28:32.537Z,2.40
2019-01-20T04:31:02.010Z,2.26
2019-01-20T04:33:31.299Z,2.14
2019-01-20T04:36:00.849Z,2.02
2019-01-20T04:38:30.127Z,1.91
2019-01-20T04:40:59.518Z,1.81
2019-01-20T04:43:28.794Z,1.69
2019-01-20T04:45:58.275Z,1.59
2019-01-20T04:48:27.571Z,1.52
2019-01-20T04:51:16.146Z,1.43
2019-01-20T04:56:22.301Z,1.27
2019-01-20T04:58:51.604Z,0.69
2019-01-20T05:01:21.292Z,1.13
2019-01-20T05:03:50.587Z,1.07
2019-01-20T05:06:39.193Z,1.01
2019-01-20T05:09:09.336Z,0.94
2019-01-20T05:11:38.626Z,0.87
2019-01-20T05:14:08.064Z,0.83
2019-01-20T05:16:37.375Z,0.29
2019-01-20T05:19:06.854Z,0.77
2019-01-20T05:21:36.133Z,0.74
2019-01-20T05:29:34.018Z,0.66
2019-01-20T05:32:03.310Z,0.62
2019-01-20T05:34:51.812Z,0.59
2019-01-20T05:37:21.116Z,0.55
2019-01-20T05:39:50.438Z,0.43
2019-01-20T05:42:19.821Z,0.45
2019-01-20T05:44:49.162Z,0.24
2019-01-20T05:47:18.441Z,0.35
2019-01-20T05:49:47.734Z,0.29
2019-01-20T05:52:36.095Z,0.24
2019-01-20T05:55:06.278Z,0.20
2019-01-20T05:57:35.564Z,0.00
2019-01-20T06:00:45.118Z,0.31
2019-01-20T06:03:14.443Z,0.30
2019-01-20T06:05:43.792Z,0.31
2019-01-20T06:08:13.080Z,0.26
2019-01-20T06:10:42.446Z,0.21
2019-01-20T06:13:11.742Z,-0.13
2019-01-20T06:16:00.096Z,0.10
2019-01-20T06:18:29.511Z,-0.24
2019-01-20T06:23:47.111Z,-0.33
2019-01-20T06:26:16.588Z,-0.10
2019-01-20T06:28:45.856Z,-0.38
2019-01-20T06:33:50.414Z,-0.46
2019-01-20T06:36:19.708Z,-0.61
2019-01-20T06:38:49.387Z,-0.28
2019-01-20T06:41:18.705Z,-0.34
2019-01-20T06:43:48.208Z,-0.38
2019-01-20T06:46:17.497Z,-0.42
2019-01-20T06:48:47.135Z,-0.48
2019-01-20T06:51:16.432Z,-0.53
2019-01-20T06:53:45.991Z,-0.57
2019-01-20T06:56:15.408Z,-0.61
2019-01-20T07:01:33.295Z,-0.72
2019-01-20T07:04:22.363Z,-0.78
2019-01-20T07:06:51.665Z,-0.83
2019-01-20T07:09:21.244Z,-0.88
2019-01-20T07:11:50.536Z,-0.92
2019-01-20T07:14:20.190Z,-1.01
2019-01-20T07:16:49.486Z,-1.01
2019-01-20T07:19:19.275Z,-1.05
2019-01-20T07:21:59.900Z,-1.08
2019-01-20T07:24:29.290Z,-1.11
2019-01-20T07:26:58.576Z,-1.12
2019-01-20T07:29:27.950Z,-1.15
2019-01-20T07:31:57.260Z,-1.20
2019-01-20T07:34:27.534Z,-1.23
2019-01-20T07:37:16.083Z,-1.26
2019-01-20T07:39:45.388Z,-1.31
2019-01-20T07:42:14.866Z,-1.35
2019-01-20T07:44:44.231Z,-1.39
2019-01-20T07:47:13.679Z,-1.42
2019-01-20T07:49:43.010Z,-1.44
2019-01-20T07:52:12.540Z,-1.49
2019-01-20T07:54:41.937Z,-1.50
2019-01-20T07:57:11.308Z,-1.45
2019-01-20T07:59:40.675Z,-1.34
2019-01-20T08:02:10.189Z,-1.30
2019-01-20T08:04:39.474Z,-1.29
2019-01-20T08:07:08.951Z,-1.29
2019-01-20T08:09:38.315Z,-1.29
2019-01-20T08:12:07.663Z,-1.31
2019-01-20T08:14:55.959Z,-1.33
2019-01-20T08:17:25.330Z,-1.32
2019-01-20T08:19:54.763Z,-1.29
2019-01-20T08:22:42.952Z,-1.29
2019-01-20T08:25:33.165Z,-1.29
2019-01-20T08:28:02.448Z,-1.30
2019-01-20T08:30:31.775Z,-1.28
2019-01-20T08:33:01.143Z,-1.25
2019-01-20T08:35:30.511Z,-1.18
2019-01-20T08:37:59.807Z,-1.14
2019-01-20T08:40:31.483Z,-1.11
2019-01-20T08:43:01.325Z,-1.09
2019-01-20T08:45:52.487Z,-1.06
2019-01-20T08:48:22.799Z,-2.37
2019-01-20T08:50:52.185Z,-1.00
2019-01-20T08:53:21.895Z,-0.94
2019-01-20T08:55:51.250Z,-1.11
2019-01-20T08:58:20.763Z,-0.85
2019-01-20T09:00:50.096Z,-0.81
2019-01-20T09:03:38.542Z,-0.79
2019-01-20T09:06:07.859Z,-0.78
2019-01-20T09:08:37.178Z,-0.77
2019-01-20T09:11:06.563Z,-0.76
2019-01-20T09:13:39.801Z,-0.75
2019-01-20T09:16:26.137Z,-0.75
2019-01-20T09:18:55.561Z,-0.75
2019-01-20T09:21:36.223Z,-0.73
2019-01-20T09:24:17.339Z,-0.71
2019-01-20T09:26:46.659Z,-0.73
2019-01-20T09:29:16.311Z,-0.70
2019-01-20T09:31:45.625Z,-1.01
2019-01-20T09:34:15.346Z,-0.65
2019-01-20T09:36:44.670Z,-0.62
2019-01-20T09:39:14.922Z,-0.59
2019-01-20T09:41:44.215Z,-0.59
2019-01-20T09:44:13.877Z,-0.62
2019-01-20T09:46:43.199Z,-0.58
2019-01-20T09:49:31.556Z,-0.62
2019-01-20T09:52:01.323Z,-0.62
2019-01-20T09:54:49.626Z,-0.63
2019-01-20T09:57:18.929Z,-0.64
2019-01-20T09:59:48.440Z,-0.65
2019-01-20T10:02:17.729Z,-0.61
2019-01-20T10:05:06.293Z,-0.57
2019-01-20T10:07:35.719Z,-0.50
2019-01-20T10:10:24.175Z,-0.48
2019-01-20T10:12:53.493Z,-0.41
2019-01-20T10:15:22.993Z,-0.38
2019-01-20T10:17:52.338Z,-0.29
2019-01-20T10:20:24.647Z,-0.23
2019-01-20T10:22:53.951Z,-0.16
2019-01-20T10:25:24.817Z,-0.08
2019-01-20T10:27:54.111Z,-0.14
2019-01-20T10:30:26.156Z,0.17
2019-01-20T10:32:55.478Z,0.29
2019-01-20T10:35:43.738Z,0.29
2019-01-20T10:41:13.269Z,0.34
2019-01-20T10:46:31.011Z,0.32
2019-01-20T10:49:00.529Z,0.40
2019-01-20T10:51:29.829Z,0.45
2019-01-20T10:53:59.387Z,0.48
2019-01-20T10:56:28.778Z,0.03
2019-01-20T11:01:33.126Z,0.68
2019-01-20T11:04:02.426Z,0.47
2019-01-20T11:06:32.146Z,0.79
2019-01-20T11:09:01.448Z,0.51
2019-01-20T11:11:31.249Z,0.83
2019-01-20T11:14:00.601Z,0.88
2019-01-20T11:16:30.515Z,0.92
2019-01-20T11:19:19.252Z,0.94
2019-01-20T11:21:48.538Z,0.95
2019-01-20T11:24:18.310Z,0.96
2019-01-20T11:26:47.581Z,0.99
2019-01-20T11:29:17.377Z,1.05
2019-01-20T11:31:46.688Z,0.56
2019-01-20T11:34:16.316Z,1.17
2019-01-20T11:36:45.681Z,1.00
2019-01-20T11:39:15.618Z,1.18
2019-01-20T11:41:44.909Z,0.72
2019-01-20T11:44:17.008Z,1.19
2019-01-20T11:46:45.641Z,1.26
2019-01-20T11:49:14.962Z,1.32
2019-01-20T11:51:44.265Z,1.05
2019-01-20T11:54:13.793Z,1.33
2019-01-20T11:56:43.142Z,1.32
2019-01-20T12:02:22.508Z,1.30
2019-01-20T12:04:53.082Z,1.32
2019-01-20T12:07:22.401Z,1.36
2019-01-20T12:09:51.700Z,1.35
2019-01-20T12:12:20.979Z,1.35
2019-01-20T12:14:50.300Z,1.30
2019-01-20T12:17:19.633Z,1.14
2019-01-20T12:19:48.969Z,1.31
2019-01-20T12:22:18.282Z,1.36
2019-01-20T12:24:47.693Z,1.39
2019-01-20T12:27:17.000Z,1.41
2019-01-20T12:29:51.807Z,1.42
2019-01-20T12:32:17.317Z,1.46
2019-01-20T12:34:46.655Z,1.47
2019-01-20T12:37:15.980Z,1.53
2019-01-20T12:39:45.267Z,1.57
2019-01-20T12:42:14.595Z,1.55
2019-01-20T12:44:43.888Z,1.57
2019-01-20T12:47:13.211Z,1.46
2019-01-20T12:49:42.495Z,1.55
2019-01-20T12:52:11.787Z,1.52
2019-01-20T12:54:41.530Z,1.46
2019-01-20T12:57:10.807Z,1.43
2019-01-20T12:59:40.282Z,1.41
2019-01-20T13:02:09.576Z,0.87
2019-01-20T13:04:39.207Z,1.40
2019-01-20T13:07:08.508Z,1.37
2019-01-20T13:09:38.079Z,1.31
2019-01-20T13:12:07.363Z,1.25
2019-01-20T13:14:39.116Z,1.25
2019-01-20T13:17:07.910Z,1.26
2019-01-20T13:19:37.169Z,1.27
2019-01-20T13:22:06.471Z,1.08
2019-01-20T13:24:35.947Z,1.28
2019-01-20T13:27:05.401Z,1.24
2019-01-20T13:29:34.746Z,1.19
2019-01-20T13:35:02.130Z,0.98
2019-01-20T13:37:31.826Z,1.14
2019-01-20T13:40:01.156Z,1.13
2019-01-20T13:42:30.542Z,1.09
2019-01-20T13:44:59.827Z,1.09
2019-01-20T13:47:29.131Z,1.08
2019-01-20T13:49:58.623Z,1.10
2019-01-20T13:52:28.315Z,1.11
2019-01-20T13:57:52.915Z,1.13
2019-01-20T14:00:42.088Z,1.14
2019-01-20T14:03:11.387Z,1.14
2019-01-20T14:05:40.919Z,1.15
2019-01-20T14:08:12.374Z,-0.14
2019-01-20T14:10:42.073Z,1.11
2019-01-20T14:13:11.379Z,0.84
2019-01-20T14:15:40.966Z,1.10
2019-01-20T14:18:10.268Z,1.00
2019-01-20T14:23:22.353Z,1.08
2019-01-20T14:25:52.067Z,1.06
2019-01-20T14:28:21.359Z,1.01
2019-01-20T14:30:50.823Z,0.96
2019-01-20T14:33:20.179Z,0.92
2019-01-20T14:35:49.541Z,0.87
2019-01-20T14:38:37.818Z,0.83
2019-01-20T14:41:07.138Z,0.75
2019-01-20T14:43:36.844Z,0.41
2019-01-20T14:46:06.164Z,0.65
2019-01-20T14:48:35.782Z,0.60
2019-01-20T14:51:05.164Z,0.55
2019-01-20T14:53:34.693Z,0.50
2019-01-20T14:56:04.014Z,0.46
2019-01-20T14:58:33.400Z,0.40
2019-01-20T15:01:02.701Z,0.35
2019-01-20T15:03:32.354Z,0.28
2019-01-20T15:06:21.005Z,-0.28
2019-01-20T15:08:50.316Z,0.17
2019-01-20T15:11:19.630Z,0.09
2019-01-20T15:13:48.951Z,0.02
2019-01-20T15:16:18.571Z,-0.06
2019-01-20T15:18:47.882Z,-0.13
2019-01-20T15:21:17.349Z,-0.18
2019-01-20T15:23:46.651Z,-0.24
2019-01-20T15:26:16.124Z,-0.29
2019-01-20T15:28:45.468Z,-0.36
2019-01-20T15:31:14.935Z,-0.44
2019-01-20T15:33:44.256Z,-0.51
2019-01-20T15:36:13.967Z,-0.57
2019-01-20T15:38:43.265Z,-0.66
2019-01-20T15:41:31.627Z,-0.73
2019-01-20T15:46:40.216Z,-0.87
2019-01-20T15:49:09.510Z,-0.92
2019-01-20T15:51:39.214Z,-0.99
2019-01-20T15:54:08.550Z,-1.53
2019-01-20T15:59:26.598Z,-1.16
2019-01-20T16:01:55.947Z,-1.24
2019-01-20T16:04:25.805Z,-1.31
2019-01-20T16:07:14.490Z,-1.36
2019-01-20T16:09:43.778Z,-1.42
2019-01-20T16:12:13.325Z,-1.48
2019-01-20T16:14:42.630Z,-1.57
2019-01-20T16:20:00.556Z,-1.96
2019-01-20T16:22:29.869Z,-1.71
2019-01-20T16:25:37.237Z,-1.78
2019-01-20T16:28:17.800Z,-1.81
2019-01-20T16:30:47.140Z,-1.85
2019-01-20T16:33:16.751Z,-1.93
2019-01-20T16:35:46.063Z,-1.97
2019-01-20T16:38:15.331Z,-2.02
2019-01-20T16:40:44.622Z,-2.33
2019-01-20T16:43:13.988Z,-2.06
2019-01-20T16:45:45.068Z,-2.10
2019-01-20T16:48:14.429Z,-2.15
2019-01-20T16:50:43.813Z,-2.20
2019-01-20T16:53:13.222Z,-2.27
2019-01-20T16:55:42.641Z,-2.32
2019-01-20T16:58:12.045Z,-2.36
2019-01-20T17:00:43.670Z,-2.40
2019-01-20T17:03:12.965Z,-2.45
2019-01-20T17:05:42.277Z,-2.49
2019-01-20T17:08:30.748Z,-2.54
2019-01-20T17:11:00.052Z,-2.60
2019-01-20T17:13:29.368Z,-2.63
2019-01-20T17:15:58.659Z,-2.63
2019-01-20T17:18:28.147Z,-2.95
2019-01-20T17:20:57.551Z,-2.70
2019-01-20T17:23:26.853Z,-2.75
2019-01-20T17:25:56.202Z,-2.77
2019-01-20T17:28:25.541Z,-2.81
2019-01-20T17:30:54.896Z,-2.84
2019-01-20T17:33:24.192Z,-2.89
2019-01-20T17:35:53.493Z,-2.93
2019-01-20T17:38:22.828Z,-2.92
2019-01-20T17:40:52.248Z,-2.92
2019-01-20T17:43:21.554Z,-2.95
2019-01-20T17:48:58.449Z,-3.01
2019-01-20T17:51:28.125Z,-3.03
2019-01-20T17:53:57.449Z,-3.07
2019-01-20T17:56:27.089Z,-3.09
2019-01-20T17:58:56.417Z,-3.12
2019-01-20T18:04:14.475Z,-3.17
2019-01-20T18:06:43.831Z,-3.17
2019-01-20T18:09:13.285Z,-3.15
2019-01-20T18:11:42.601Z,-3.09
2019-01-20T18:14:12.273Z,-3.08
2019-01-20T18:16:41.595Z,-3.11
2019-01-20T18:19:11.451Z,-3.12
2019-01-20T18:24:29.147Z,-3.12
2019-01-20T18:26:58.554Z,-3.06
2019-01-20T18:29:27.868Z,-2.98
2019-01-20T18:31:57.522Z,-2.96
2019-01-20T18:34:46.101Z,-3.31
2019-01-20T18:37:15.413Z,-3.01
2019-01-20T18:39:45.159Z,-3.04
2019-01-20T18:42:14.519Z,-3.00
2019-01-20T18:44:44.085Z,-2.93
2019-01-20T18:47:13.376Z,-2.89
2019-01-20T18:49:42.966Z,-3.20
2019-01-20T18:52:12.266Z,-2.89
2019-01-20T18:54:41.611Z,-2.86
2019-01-20T18:57:10.983Z,-2.84
2019-01-20T19:02:15.445Z,-2.85
2019-01-20T19:04:44.861Z,-2.84
2019-01-20T19:07:14.215Z,-2.87
2019-01-20T19:09:43.719Z,-2.89
2019-01-20T19:12:13.066Z,-2.89
2019-01-20T19:14:42.414Z,-2.91
2019-01-20T19:17:11.821Z,-2.91
2019-01-20T19:19:41.235Z,-2.90
2019-01-20T19:22:10.658Z,-2.92
2019-01-20T19:24:39.944Z,-2.92
2019-01-20T19:27:28.233Z,-2.92
2019-01-20T19:29:57.770Z,-2.94
2019-01-20T19:32:46.067Z,-2.98
2019-01-20T19:35:15.605Z,-3.03
2019-01-20T19:37:44.954Z,-3.27
2019-01-20T19:40:14.884Z,-3.06
2019-01-20T19:43:03.165Z,-3.65
2019-01-20T19:45:32.491Z,-3.00
2019-01-20T19:48:01.999Z,-2.97
2019-01-20T19:50:31.297Z,-3.21
2019-01-20T19:53:00.751Z,-2.85
2019-01-20T19:55:32.143Z,-2.73
2019-01-20T19:58:20.610Z,-2.60
2019-01-20T20:00:50.036Z,-2.50
2019-01-20T20:03:19.357Z,-2.41
2019-01-20T20:05:48.779Z,-2.35
2019-01-20T20:08:18.233Z,-2.30
2019-01-20T20:10:47.871Z,-2.22
2019-01-20T20:13:17.230Z,-2.14
2019-01-20T20:15:46.582Z,-2.09
2019-01-20T20:18:15.968Z,-2.05
2019-01-20T20:20:45.603Z,-1.92
2019-01-20T20:23:15.014Z,-1.85
2019-01-20T20:25:46.885Z,-1.81
2019-01-20T20:28:16.457Z,-1.92
2019-01-20T20:30:45.856Z,-1.67
2019-01-20T20:33:15.335Z,-1.63
2019-01-20T20:35:46.778Z,-1.57
2019-01-20T20:38:16.543Z,-1.53
2019-01-20T20:40:45.871Z,-1.46
2019-01-20T20:43:15.396Z,-1.45
2019-01-20T20:45:44.707Z,-1.35
2019-01-20T20:48:14.229Z,-1.34
2019-01-20T20:50:43.632Z,-1.64
2019-01-20T20:53:13.409Z,-1.37
2019-01-20T20:55:42.729Z,-1.46
2019-01-20T20:58:12.437Z,-1.56
2019-01-20T21:00:44.040Z,-1.66
2019-01-20T21:03:19.352Z,-1.72
2019-01-20T21:05:49.168Z,-1.73
2019-01-20T21:08:18.497Z,-1.74
2019-01-20T21:10:48.031Z,-1.75
2019-01-20T21:13:17.350Z,-1.76
2019-01-20T21:15:46.896Z,-1.77
2019-01-20T21:18:16.223Z,-1.77
2019-01-20T21:20:45.743Z,-1.80
2019-01-20T21:23:15.054Z,-1.81
2019-01-20T21:25:44.347Z,-1.77
2019-01-20T21:28:13.968Z,-2.08
2019-01-20T21:30:43.495Z,-1.80
2019-01-20T21:33:12.791Z,-2.10
2019-01-20T21:35:42.239Z,-1.78
2019-01-20T21:38:11.587Z,-2.11
2019-01-20T21:40:41.129Z,-1.80
2019-01-20T21:43:10.446Z,-2.06
2019-01-20T21:45:40.640Z,-1.72
2019-01-20T21:48:09.967Z,-1.69
2019-01-20T21:50:39.590Z,-1.67
2019-01-20T21:53:08.923Z,-1.63
2019-01-20T21:55:38.541Z,-1.58
2019-01-20T21:58:07.863Z,-1.51
2019-01-20T22:00:37.312Z,-1.46
2019-01-20T22:06:02.272Z,-1.28
2019-01-20T22:08:31.595Z,-1.16
2019-01-20T22:11:01.264Z,-1.08
2019-01-20T22:13:30.537Z,-0.98
2019-01-20T22:16:00.167Z,-0.89
2019-01-20T22:18:29.452Z,-0.81
2019-01-20T22:20:58.822Z,-0.74
2019-01-20T22:23:28.138Z,-0.97
2019-01-20T22:25:57.466Z,-0.52
2019-01-20T22:28:26.794Z,-0.52
2019-01-20T22:30:56.373Z,-0.46
2019-01-20T22:33:25.768Z,-1.00
2019-01-20T22:35:55.370Z,-0.39
2019-01-20T22:38:24.659Z,-0.32
2019-01-20T22:40:54.224Z,-0.27
2019-01-20T22:43:23.568Z,-0.21
2019-01-20T22:45:53.358Z,-0.17
2019-01-20T22:48:22.707Z,-0.11
2019-01-20T22:50:52.250Z,-0.05
2019-01-20T22:53:21.532Z,-0.26
2019-01-20T22:55:51.186Z,0.05
2019-01-20T22:58:20.505Z,0.11
2019-01-20T23:01:11.688Z,0.15
2019-01-20T23:03:40.982Z,0.21
2019-01-20T23:06:10.335Z,0.10
2019-01-20T23:08:39.671Z,0.29
2019-01-20T23:11:08.958Z,0.33
2019-01-20T23:13:38.315Z,0.38
2019-01-20T23:18:43.091Z,0.46
2019-01-20T23:21:12.736Z,0.50
2019-01-20T23:23:42.083Z,0.53
2019-01-20T23:26:11.482Z,0.57
2019-01-20T23:28:40.867Z,0.35
2019-01-20T23:31:10.365Z,0.66
2019-01-20T23:33:39.664Z,0.40
2019-01-20T23:36:09.168Z,0.72
2019-01-20T23:38:57.632Z,0.73
2019-01-20T23:41:26.926Z,0.74
2019-01-20T23:43:56.595Z,0.78
2019-01-20T23:46:25.913Z,0.50
2019-01-20T23:48:55.364Z,0.82
2019-01-20T23:53:59.615Z,0.86
2019-01-20T23:56:47.965Z,0.89
2019-01-20T23:59:36.300Z,0.92
